createdAt,value
2023-04-22T00:00:04.836Z,70.68
2023-04-22T00:02:37.731Z,69.32
2023-04-22T00:05:07.401Z,70.62
2023-04-22T00:07:35.440Z,69.83
2023-04-22T00:10:03.063Z,69.60
2023-04-22T00:12:30.626Z,71.45
2023-04-22T00:14:58.236Z,70.60
2023-04-22T00:17:25.732Z,70.17
2023-04-22T00:19:53.399Z,70.58
2023-04-22T00:22:20.891Z,69.41
2023-04-22T00:24:48.364Z,68.72
2023-04-22T00:27:15.853Z,69.28
2023-04-22T00:29:43.203Z,69.20
2023-04-22T00:32:10.720Z,67.71
2023-04-22T00:34:38.314Z,67.66
2023-04-22T00:37:06.567Z,66.62
2023-04-22T00:39:34.092Z,68.38
2023-04-22T00:42:02.376Z,69.26
2023-04-22T00:44:30.458Z,69.04
2023-04-22T00:46:59.205Z,68.05
2023-04-22T00:49:28.124Z,69.15
2023-04-22T00:51:55.685Z,68.26
2023-04-22T00:54:23.548Z,67.79
2023-04-22T00:56:51.138Z,67.86
2023-04-22T00:59:18.823Z,67.59
2023-04-22T01:01:47.264Z,67.67
2023-04-22T01:04:15.729Z,66.60
2023-04-22T01:06:44.880Z,66.65
2023-04-22T01:09:12.988Z,66.56
2023-04-22T01:11:41.306Z,66.98
2023-04-22T01:14:08.759Z,67.64
2023-04-22T01:16:39.331Z,67.66
2023-04-22T01:19:08.681Z,66.89
2023-04-22T01:21:36.455Z,65.90
2023-04-22T01:24:04.201Z,65.45
2023-04-22T01:26:32.335Z,65.48
2023-04-22T01:29:02.564Z,65.52
2023-04-22T01:31:30.523Z,64.83
2023-04-22T01:33:59.767Z,64.26
2023-04-22T01:36:28.023Z,63.72
2023-04-22T01:38:56.103Z,63.48
2023-04-22T01:41:27.261Z,63.76
2023-04-22T01:43:56.754Z,63.91
2023-04-22T01:46:24.285Z,63.91
2023-04-22T01:48:52.122Z,63.29
2023-04-22T01:51:22.528Z,63.06
2023-04-22T01:53:50.288Z,62.80
2023-04-22T01:56:18.172Z,62.46
2023-04-22T01:58:45.851Z,61.34
2023-04-22T02:01:14.761Z,61.16
2023-04-22T02:03:42.402Z,60.77
2023-04-22T02:06:11.741Z,60.51
2023-04-22T02:08:39.269Z,60.57
2023-04-22T02:11:06.790Z,59.03
2023-04-22T02:13:38.263Z,57.34
2023-04-22T02:16:06.374Z,56.57
2023-04-22T02:18:34.460Z,57.33
2023-04-22T02:21:02.152Z,57.72
2023-04-22T02:23:29.756Z,56.24
2023-04-22T02:25:57.402Z,56.36
2023-04-22T02:28:24.960Z,56.69
2023-04-22T02:30:52.410Z,56.27
2023-04-22T02:33:21.634Z,54.84
2023-04-22T02:35:49.169Z,54.46
2023-04-22T02:38:20.090Z,55.43
2023-04-22T02:40:47.673Z,54.73
2023-04-22T02:43:15.287Z,53.92
2023-04-22T02:45:42.864Z,54.33
2023-04-22T02:48:11.105Z,55.81
2023-04-22T02:50:38.573Z,56.52
2023-04-22T02:53:06.573Z,56.38
2023-04-22T02:55:34.173Z,55.45
2023-04-22T02:58:01.638Z,55.25
2023-04-22T03:00:30.073Z,55.28
2023-04-22T03:02:57.701Z,54.67
2023-04-22T03:05:34.184Z,53.66
2023-04-22T03:08:03.216Z,53.71
2023-04-22T03:10:32.634Z,53.39
2023-04-22T03:13:00.208Z,53.06
2023-04-22T03:15:27.945Z,53.43
2023-04-22T03:17:55.932Z,54.82
2023-04-22T03:20:24.364Z,54.79
2023-04-22T03:22:52.058Z,55.66
2023-04-22T03:25:20.373Z,56.05
2023-04-22T03:27:53.853Z,56.75
2023-04-22T03:30:21.538Z,55.16
2023-04-22T03:32:49.285Z,56.05
2023-04-22T03:35:22.656Z,54.60
2023-04-22T03:37:51.752Z,56.24
2023-04-22T03:40:24.616Z,57.12
2023-04-22T03:42:52.200Z,57.25
2023-04-22T03:46:06.058Z,57.88
2023-04-22T03:48:37.603Z,57.10
2023-04-22T03:51:11.044Z,56.69
2023-04-22T03:53:40.921Z,56.18
2023-04-22T03:56:10.790Z,55.63
2023-04-22T03:58:44.557Z,55.48
2023-04-22T04:01:12.173Z,54.84
2023-04-22T04:03:41.883Z,54.43
2023-04-22T04:06:10.467Z,53.78
2023-04-22T04:08:38.332Z,53.29
2023-04-22T04:11:06.167Z,52.89
2023-04-22T04:13:33.977Z,52.48
2023-04-22T04:16:21.687Z,52.32
2023-04-22T04:18:55.606Z,52.57
2023-04-22T04:21:27.313Z,52.18
2023-04-22T04:23:56.628Z,51.67
2023-04-22T04:26:27.984Z,51.68
2023-04-22T04:29:03.322Z,51.24
2023-04-22T04:31:30.825Z,50.63
2023-04-22T04:34:00.574Z,50.44
2023-04-22T04:36:29.551Z,49.93
2023-04-22T04:39:10.055Z,49.69
2023-04-22T04:41:39.066Z,49.60
2023-04-22T04:44:07.806Z,48.78
2023-04-22T04:46:38.470Z,48.67
2023-04-22T04:49:09.706Z,48.70
2023-04-22T04:51:46.564Z,48.52
2023-04-22T04:54:14.060Z,48.37
2023-04-22T04:56:42.646Z,47.84
2023-04-22T04:59:11.196Z,47.15
2023-04-22T05:01:40.700Z,45.97
2023-04-22T05:04:12.156Z,45.42
2023-04-22T05:06:42.280Z,45.71
2023-04-22T05:09:10.377Z,45.65
2023-04-22T05:11:38.188Z,45.87
2023-04-22T05:14:12.789Z,45.42
2023-04-22T05:16:42.882Z,45.82
2023-04-22T05:19:10.861Z,45.39
2023-04-22T05:21:38.477Z,46.07
2023-04-22T05:24:06.170Z,46.03
2023-04-22T05:26:34.337Z,45.38
2023-04-22T05:29:07.241Z,44.65
2023-04-22T05:31:34.807Z,44.40
2023-04-22T05:34:02.343Z,44.70
2023-04-22T05:36:31.549Z,44.83
2023-04-22T05:39:00.285Z,44.69
2023-04-22T05:41:28.747Z,45.41
2023-04-22T05:43:58.312Z,45.15
2023-04-22T05:46:26.583Z,44.03
2023-04-22T05:48:56.134Z,44.35
2023-04-22T05:51:59.011Z,44.16
2023-04-22T05:54:33.157Z,44.57
2023-04-22T05:57:00.823Z,44.70
2023-04-22T05:59:28.361Z,44.91
2023-04-22T06:01:56.636Z,45.12
2023-04-22T06:04:25.585Z,45.21
2023-04-22T06:06:56.286Z,45.25
2023-04-22T06:09:24.129Z,45.24
2023-04-22T06:11:51.713Z,45.28
2023-04-22T06:14:19.844Z,45.53
2023-04-22T06:16:48.032Z,45.05
2023-04-22T06:19:15.484Z,45.44
2023-04-22T06:21:43.626Z,45.84
2023-04-22T06:24:11.161Z,46.37
2023-04-22T06:26:38.903Z,45.88
2023-04-22T06:29:06.962Z,46.05
2023-04-22T06:31:35.725Z,47.08
2023-04-22T06:34:03.247Z,44.80
2023-04-22T06:36:33.372Z,44.35
2023-04-22T06:39:03.803Z,42.71
2023-04-22T06:41:53.084Z,42.65
2023-04-22T06:44:32.505Z,41.48
2023-04-22T06:47:18.552Z,40.63
2023-04-22T06:50:02.362Z,41.83
2023-04-22T06:52:35.757Z,41.47
2023-04-22T06:55:04.363Z,41.63
2023-04-22T06:57:33.018Z,40.81
2023-04-22T07:00:00.682Z,40.07
2023-04-22T07:02:28.543Z,40.37
2023-04-22T07:04:56.405Z,39.60
2023-04-22T07:07:25.216Z,40.73
2023-04-22T07:09:53.206Z,41.43
2023-04-22T07:12:20.698Z,42.23
2023-04-22T07:14:49.775Z,41.65
2023-04-22T07:17:19.775Z,41.74
2023-04-22T07:19:47.284Z,42.03
2023-04-22T07:22:14.782Z,42.38
2023-04-22T07:24:42.437Z,42.77
2023-04-22T07:27:09.869Z,42.48
2023-04-22T07:29:37.794Z,42.94
2023-04-22T07:32:06.888Z,43.49
2023-04-22T07:34:34.487Z,43.69
2023-04-22T07:37:02.320Z,43.60
2023-04-22T07:39:29.767Z,43.41
2023-04-22T07:41:57.328Z,44.47
2023-04-22T07:44:24.912Z,43.58
2023-04-22T07:46:52.547Z,43.90
2023-04-22T07:49:20.421Z,45.66
2023-04-22T07:51:48.056Z,45.34
2023-04-22T07:54:15.713Z,46.44
2023-04-22T07:56:43.219Z,45.96
2023-04-22T07:59:10.798Z,45.96
2023-04-22T08:01:38.266Z,46.29
2023-04-22T08:04:05.964Z,46.15
2023-04-22T08:06:33.977Z,46.28
2023-04-22T08:09:01.427Z,47.19
2023-04-22T08:11:29.159Z,47.25
2023-04-22T08:13:56.677Z,47.17
2023-04-22T08:16:24.241Z,46.67
2023-04-22T08:18:52.570Z,46.81
2023-04-22T08:21:20.140Z,46.18
2023-04-22T08:23:48.143Z,45.63
2023-04-22T08:26:17.188Z,46.76
2023-04-22T08:28:44.815Z,45.71
2023-04-22T08:31:13.311Z,47.86
2023-04-22T08:33:41.912Z,47.91
2023-04-22T08:36:11.299Z,46.33
2023-04-22T08:38:38.873Z,47.95
2023-04-22T08:41:07.461Z,46.73
2023-04-22T08:43:35.806Z,47.97
2023-04-22T08:46:03.340Z,50.05
2023-04-22T08:48:31.088Z,48.95
2023-04-22T08:50:58.862Z,49.84
2023-04-22T08:53:26.534Z,47.57
2023-04-22T08:55:56.868Z,46.99
2023-04-22T08:58:24.922Z,47.70
2023-04-22T09:00:53.190Z,47.28
2023-04-22T09:03:22.179Z,49.25
2023-04-22T09:05:53.221Z,49.58
2023-04-22T09:08:21.186Z,49.09
2023-04-22T09:10:49.125Z,50.29
2023-04-22T09:13:18.071Z,51.27
2023-04-22T09:15:46.459Z,51.35
2023-04-22T09:18:18.719Z,55.95
2023-04-22T09:20:48.867Z,55.73
2023-04-22T09:23:16.711Z,58.78
2023-04-22T09:25:46.601Z,61.40
2023-04-22T09:28:19.056Z,61.75
2023-04-22T09:30:48.441Z,61.92
2023-04-22T09:33:17.701Z,62.61
2023-04-22T09:35:45.387Z,60.28
2023-04-22T09:38:13.836Z,62.27
2023-04-22T09:40:44.771Z,64.38
2023-04-22T09:43:12.803Z,62.09
2023-04-22T09:45:42.488Z,63.79
2023-04-22T09:48:18.633Z,64.85
2023-04-22T09:50:51.478Z,62.69
2023-04-22T09:53:21.920Z,65.81
2023-04-22T09:55:52.243Z,63.60
2023-04-22T09:58:21.936Z,62.56
2023-04-22T10:00:52.391Z,62.38
2023-04-22T10:03:20.685Z,58.86
2023-04-22T10:05:48.444Z,56.36
2023-04-22T10:08:17.104Z,54.33
2023-04-22T10:10:45.220Z,53.97
2023-04-22T10:13:12.953Z,53.42
2023-04-22T10:15:48.856Z,52.84
2023-04-22T10:18:21.989Z,53.15
2023-04-22T10:20:50.532Z,52.73
2023-04-22T10:23:22.966Z,53.14
2023-04-22T10:25:59.347Z,53.32
2023-04-22T10:28:30.368Z,52.77
2023-04-22T10:30:58.025Z,52.46
2023-04-22T10:33:28.023Z,52.49
2023-04-22T10:36:21.705Z,51.98
2023-04-22T10:38:54.872Z,52.64
2023-04-22T10:41:35.919Z,53.72
2023-04-22T10:44:08.440Z,53.94
2023-04-22T10:46:40.286Z,53.84
2023-04-22T10:49:18.780Z,54.61
2023-04-22T10:52:01.072Z,55.49
2023-04-22T10:54:37.787Z,55.05
2023-04-22T10:57:09.577Z,55.64
2023-04-22T10:59:53.415Z,54.61
2023-04-22T11:02:23.014Z,54.19
2023-04-22T11:04:53.976Z,54.59
2023-04-22T11:07:23.011Z,54.66
2023-04-22T11:09:52.666Z,54.63
2023-04-22T11:12:35.868Z,56.23
2023-04-22T11:15:07.020Z,57.84
2023-04-22T11:17:35.918Z,58.65
2023-04-22T11:20:05.911Z,60.84
2023-04-22T11:22:44.399Z,62.44
2023-04-22T11:25:12.269Z,62.41
2023-04-22T11:27:43.734Z,63.83
2023-04-22T11:30:13.145Z,63.97
2023-04-22T11:32:46.063Z,64.32
2023-04-22T11:35:16.511Z,64.31
2023-04-22T11:37:49.383Z,68.09
2023-04-22T11:40:32.682Z,67.82
2023-04-22T11:43:03.755Z,65.70
2023-04-22T11:45:33.199Z,67.00
2023-04-22T11:48:01.999Z,69.28
2023-04-22T11:50:32.740Z,69.69
2023-04-22T11:53:03.801Z,68.50
2023-04-22T11:55:34.156Z,71.47
2023-04-22T11:58:06.166Z,72.69
2023-04-22T12:00:45.435Z,79.24
2023-04-22T12:03:18.619Z,77.74
2023-04-22T12:05:53.933Z,83.91
2023-04-22T12:08:27.051Z,85.80
2023-04-22T12:10:56.901Z,89.35
2023-04-22T12:13:30.661Z,97.25
2023-04-22T12:16:01.497Z,99.47
2023-04-22T12:18:37.399Z,100.00
2023-04-22T12:21:04.831Z,99.94
2023-04-22T12:23:48.082Z,98.85
2023-04-22T12:26:17.745Z,99.24
2023-04-22T12:28:46.152Z,100.00
2023-04-22T12:31:15.107Z,100.00
2023-04-22T12:33:43.542Z,100.00
2023-04-22T12:36:11.304Z,100.00
2023-04-22T12:38:39.792Z,100.00
2023-04-22T12:41:07.935Z,100.00
2023-04-22T12:43:39.713Z,100.00
2023-04-22T12:46:08.375Z,100.00
2023-04-22T12:48:37.864Z,100.00
2023-04-22T12:51:06.764Z,100.00
2023-04-22T12:53:35.136Z,100.00
2023-04-22T12:56:02.533Z,100.00
2023-04-22T12:58:30.217Z,100.00
2023-04-22T13:00:57.655Z,100.00
2023-04-22T13:03:25.270Z,100.00
2023-04-22T13:05:53.204Z,100.00
2023-04-22T13:08:20.664Z,100.00
2023-04-22T13:10:48.912Z,100.00
2023-04-22T13:13:18.836Z,100.00
2023-04-22T13:15:54.345Z,100.00
2023-04-22T13:18:23.519Z,100.00
2023-04-22T13:20:51.738Z,100.00
2023-04-22T13:23:22.184Z,100.00
2023-04-22T13:25:57.143Z,100.00
2023-04-22T13:28:24.712Z,100.00
2023-04-22T13:30:52.490Z,100.00
2023-04-22T13:33:20.077Z,100.00
2023-04-22T13:35:47.562Z,100.00
2023-04-22T13:38:15.175Z,100.00
2023-04-22T13:40:42.669Z,100.00
2023-04-22T13:43:10.391Z,100.00
2023-04-22T13:45:38.042Z,100.00
2023-04-22T13:48:05.861Z,100.00
2023-04-22T13:50:34.421Z,100.00
2023-04-22T13:53:03.982Z,100.00
2023-04-22T13:55:31.588Z,100.00
2023-04-22T13:57:59.189Z,100.00
2023-04-22T14:00:26.741Z,100.00
2023-04-22T14:02:54.472Z,100.00
2023-04-22T14:05:22.090Z,100.00
2023-04-22T14:07:49.779Z,100.00
2023-04-22T14:10:20.535Z,100.00
2023-04-22T14:12:48.853Z,100.00
2023-04-22T14:15:16.553Z,100.00
2023-04-22T14:17:44.177Z,100.00
2023-04-22T14:20:11.815Z,100.00
2023-04-22T14:22:39.348Z,100.00
2023-04-22T14:25:08.113Z,100.00
2023-04-22T14:27:36.061Z,100.00
2023-04-22T14:30:06.479Z,100.00
2023-04-22T14:32:34.300Z,100.00
2023-04-22T14:35:02.129Z,100.00
2023-04-22T14:37:31.870Z,100.00
2023-04-22T14:39:59.421Z,100.00
2023-04-22T14:42:27.708Z,100.00
2023-04-22T14:44:55.280Z,100.00
2023-04-22T14:47:23.007Z,100.00
2023-04-22T14:49:50.945Z,100.00
2023-04-22T14:52:18.632Z,100.00
2023-04-22T14:54:47.640Z,100.00
2023-04-22T14:57:16.000Z,100.00
2023-04-22T14:59:43.585Z,100.00
2023-04-22T15:02:16.171Z,100.00
2023-04-22T15:04:44.728Z,100.00
2023-04-22T15:07:12.371Z,100.00
2023-04-22T15:09:40.727Z,100.00
2023-04-22T15:12:08.485Z,100.00
2023-04-22T15:14:37.084Z,100.00
2023-04-22T15:17:05.787Z,100.00
2023-04-22T15:19:33.414Z,100.00
2023-04-22T15:22:01.224Z,100.00
2023-04-22T15:24:31.292Z,100.00
2023-04-22T15:26:59.271Z,100.00
2023-04-22T15:29:28.686Z,100.00
2023-04-22T15:31:57.074Z,100.00
2023-04-22T15:34:25.353Z,100.00
2023-04-22T15:36:52.923Z,100.00
2023-04-22T15:39:20.859Z,100.00
2023-04-22T15:41:48.384Z,100.00
2023-04-22T15:44:17.113Z,100.00
2023-04-22T15:46:46.757Z,100.00
2023-04-22T15:49:15.203Z,100.00
2023-04-22T15:51:42.774Z,100.00
2023-04-22T15:54:10.733Z,100.00
2023-04-22T15:56:38.381Z,100.00
2023-04-22T15:59:05.850Z,100.00
2023-04-22T16:01:33.386Z,100.00
2023-04-22T16:04:01.585Z,100.00
2023-04-22T16:06:29.376Z,100.00
2023-04-22T16:08:57.103Z,100.00
2023-04-22T16:11:24.630Z,100.00
2023-04-22T16:13:52.114Z,100.00
2023-04-22T16:16:19.684Z,100.00
2023-04-22T16:18:48.220Z,100.00
2023-04-22T16:21:15.848Z,100.00
2023-04-22T16:23:43.709Z,100.00
2023-04-22T16:26:11.244Z,100.00
2023-04-22T16:28:38.880Z,100.00
2023-04-22T16:31:06.629Z,100.00
2023-04-22T16:33:34.220Z,100.00
2023-04-22T16:36:02.398Z,100.00
2023-04-22T16:38:29.957Z,100.00
2023-04-22T16:40:57.701Z,100.00
2023-04-22T16:43:25.260Z,100.00
2023-04-22T16:45:52.735Z,100.00
2023-04-22T16:48:20.415Z,100.00
2023-04-22T16:50:48.348Z,100.00
2023-04-22T16:53:15.950Z,100.00
2023-04-22T16:55:43.729Z,100.00
2023-04-22T16:58:12.417Z,100.00
2023-04-22T17:00:40.079Z,100.00
2023-04-22T17:03:08.298Z,100.00
2023-04-22T17:05:36.236Z,100.00
2023-04-22T17:08:03.768Z,100.00
2023-04-22T17:10:31.724Z,100.00
2023-04-22T17:12:59.265Z,100.00
2023-04-22T17:15:28.068Z,100.00
2023-04-22T17:17:55.564Z,100.00
2023-04-22T17:20:23.208Z,100.00
2023-04-22T17:22:54.790Z,100.00
2023-04-22T17:25:22.579Z,100.00
2023-04-22T17:27:50.089Z,100.00
2023-04-22T17:30:17.603Z,100.00
2023-04-22T17:32:45.181Z,100.00
2023-04-22T17:35:12.870Z,100.00
2023-04-22T17:37:40.450Z,100.00
2023-04-22T17:40:09.248Z,100.00
2023-04-22T17:42:45.976Z,100.00
2023-04-22T17:45:14.297Z,100.00
2023-04-22T17:47:42.197Z,100.00
2023-04-22T17:50:10.222Z,100.00
2023-04-22T17:52:37.744Z,100.00
2023-04-22T17:55:06.170Z,100.00
2023-04-22T17:57:33.837Z,100.00
2023-04-22T18:00:01.565Z,100.00
2023-04-22T18:02:31.235Z,100.00
2023-04-22T18:04:58.831Z,100.00
2023-04-22T18:07:26.431Z,100.00
2023-04-22T18:09:56.950Z,100.00
2023-04-22T18:12:28.595Z,100.00
2023-04-22T18:14:57.591Z,100.00
2023-04-22T18:17:25.185Z,100.00
2023-04-22T18:20:02.869Z,100.00
2023-04-22T18:22:37.826Z,100.00
2023-04-22T18:25:06.062Z,100.00
2023-04-22T18:27:33.739Z,100.00
2023-04-22T18:30:01.196Z,100.00
2023-04-22T18:32:30.671Z,100.00
2023-04-22T18:34:58.973Z,100.00
2023-04-22T18:37:30.207Z,100.00
2023-04-22T18:39:58.069Z,100.00
2023-04-22T18:42:25.741Z,100.00
2023-04-22T18:44:53.361Z,100.00
2023-04-22T18:47:21.335Z,100.00
2023-04-22T18:49:48.930Z,100.00
2023-04-22T18:52:17.524Z,100.00
2023-04-22T18:54:45.179Z,100.00
2023-04-22T18:57:13.131Z,100.00
2023-04-22T18:59:40.760Z,100.00
2023-04-22T19:02:11.819Z,100.00
2023-04-22T19:04:40.072Z,100.00
2023-04-22T19:07:07.880Z,100.00
2023-04-22T19:09:35.573Z,100.00
2023-04-22T19:12:03.286Z,100.00
2023-04-22T19:14:30.937Z,100.00
2023-04-22T19:16:58.551Z,100.00
2023-04-22T19:19:26.070Z,100.00
2023-04-22T19:21:53.678Z,100.00
2023-04-22T19:24:21.838Z,100.00
2023-04-22T19:26:49.639Z,100.00
2023-04-22T19:29:17.400Z,100.00
2023-04-22T19:31:45.337Z,100.00
2023-04-22T19:34:13.493Z,100.00
2023-04-22T19:36:41.039Z,100.00
2023-04-22T19:39:08.856Z,100.00
2023-04-22T19:41:38.438Z,100.00
2023-04-22T19:44:05.995Z,100.00
2023-04-22T19:46:33.543Z,100.00
2023-04-22T19:49:01.439Z,100.00
2023-04-22T19:51:28.999Z,100.00
2023-04-22T19:53:57.693Z,100.00
2023-04-22T19:56:25.884Z,100.00
2023-04-22T19:58:53.628Z,100.00
2023-04-22T20:01:21.599Z,100.00
2023-04-22T20:03:50.002Z,100.00
2023-04-22T20:06:18.538Z,100.00
2023-04-22T20:08:46.453Z,100.00
2023-04-22T20:11:14.315Z,100.00
2023-04-22T20:13:42.648Z,100.00
2023-04-22T20:16:10.898Z,100.00
2023-04-22T20:18:38.670Z,100.00
2023-04-22T20:21:06.780Z,100.00
2023-04-22T20:23:34.431Z,100.00
2023-04-22T20:26:03.278Z,100.00
2023-04-22T20:28:52.227Z,100.00
2023-04-22T20:31:22.838Z,100.00
2023-04-22T20:33:51.417Z,100.00
2023-04-22T20:36:20.471Z,100.00
2023-04-22T20:38:51.241Z,100.00
2023-04-22T20:41:19.034Z,100.00
2023-04-22T20:43:47.537Z,100.00
2023-04-22T20:46:15.406Z,100.00
2023-04-22T20:48:42.991Z,100.00
2023-04-22T20:51:10.587Z,100.00
2023-04-22T20:53:38.516Z,100.00
2023-04-22T20:56:07.706Z,100.00
2023-04-22T20:58:35.211Z,100.00
2023-04-22T21:01:02.850Z,100.00
2023-04-22T21:03:31.371Z,100.00
2023-04-22T21:06:01.416Z,100.00
2023-04-22T21:08:29.329Z,100.00
2023-04-22T21:10:57.341Z,100.00
2023-04-22T21:13:25.165Z,100.00
2023-04-22T21:16:01.671Z,100.00
2023-04-22T21:18:32.096Z,100.00
2023-04-22T21:21:04.825Z,100.00
2023-04-22T21:23:32.812Z,100.00
2023-04-22T21:26:02.061Z,100.00
2023-04-22T21:28:30.635Z,100.00
2023-04-22T21:30:58.386Z,100.00
2023-04-22T21:33:25.968Z,100.00
2023-04-22T21:35:53.677Z,100.00
2023-04-22T21:38:21.597Z,100.00
2023-04-22T21:40:49.206Z,100.00
2023-04-22T21:43:16.748Z,100.00
2023-04-22T21:45:44.392Z,100.00
2023-04-22T21:48:11.951Z,100.00
2023-04-22T21:50:39.469Z,100.00
2023-04-22T21:53:07.131Z,100.00
2023-04-22T21:55:34.678Z,100.00
2023-04-22T21:58:02.398Z,100.00
2023-04-22T22:00:31.232Z,100.00
2023-04-22T22:02:58.855Z,100.00
2023-04-22T22:05:26.488Z,100.00
2023-04-22T22:07:55.540Z,100.00
2023-04-22T22:10:23.943Z,100.00
2023-04-22T22:12:51.653Z,100.00
2023-04-22T22:15:19.252Z,100.00
2023-04-22T22:17:46.940Z,100.00
2023-04-22T22:20:20.679Z,100.00
2023-04-22T22:22:48.312Z,100.00
2023-04-22T22:25:16.984Z,100.00
2023-04-22T22:27:49.511Z,100.00
2023-04-22T22:30:18.986Z,100.00
2023-04-22T22:32:46.693Z,100.00
2023-04-22T22:35:14.566Z,100.00
2023-04-22T22:37:42.186Z,100.00
2023-04-22T22:40:10.430Z,100.00
2023-04-22T22:42:37.940Z,100.00
2023-04-22T22:45:05.811Z,100.00
2023-04-22T22:47:33.538Z,100.00
2023-04-22T22:50:01.100Z,100.00
2023-04-22T22:52:29.310Z,100.00
2023-04-22T22:54:56.798Z,100.00
2023-04-22T22:57:24.487Z,100.00
2023-04-22T22:59:52.122Z,100.00
2023-04-22T23:02:19.807Z,100.00
2023-04-22T23:04:47.838Z,100.00
2023-04-22T23:07:17.353Z,100.00
2023-04-22T23:09:45.741Z,100.00
2023-04-22T23:12:13.272Z,100.00
2023-04-22T23:14:41.224Z,100.00
2023-04-22T23:17:09.108Z,100.00
2023-04-22T23:19:36.960Z,100.00
2023-04-22T23:22:07.095Z,100.00
2023-04-22T23:24:34.761Z,100.00
2023-04-22T23:27:03.375Z,100.00
2023-04-22T23:29:31.200Z,100.00
2023-04-22T23:32:02.886Z,100.00
2023-04-22T23:34:34.013Z,100.00
2023-04-22T23:37:05.886Z,100.00
2023-04-22T23:39:33.531Z,100.00
2023-04-22T23:42:01.445Z,100.00
2023-04-22T23:44:29.037Z,100.00
2023-04-22T23:46:56.888Z,100.00
2023-04-22T23:49:24.450Z,100.00
2023-04-22T23:51:51.950Z,100.00
2023-04-22T23:54:19.548Z,100.00
2023-04-22T23:56:47.380Z,100.00
2023-04-22T23:59:15.107Z,100.00
